createdAt,value
2018-10-12T00:00:21.383Z,17.8
2018-10-12T00:01:12.076Z,17.8
2018-10-12T00:02:01.827Z,17.8
2018-10-12T00:02:51.902Z,17.8
2018-10-12T00:03:42.000Z,17.8
2018-10-12T00:04:31.763Z,17.8
2018-10-12T00:05:21.566Z,17.8
2018-10-12T00:06:12.611Z,17.8
2018-10-12T00:25:19.513Z,17.8
2018-10-12T00:26:09.368Z,17.8
2018-10-12T00:26:58.996Z,17.8
2018-10-12T00:27:49.937Z,17.8
2018-10-12T00:28:39.222Z,17.8
2018-10-12T00:29:29.593Z,17.8
2018-10-12T00:30:20.250Z,17.8
2018-10-12T00:31:10.318Z,17.8
2018-10-12T00:31:59.534Z,17.8
2018-10-12T00:32:49.775Z,17.8
2018-10-12T00:33:39.879Z,17.8
2018-10-12T00:34:30.283Z,17.8
2018-10-12T00:35:20.392Z,17.8
2018-10-12T00:36:10.045Z,17.8
2018-10-12T00:36:59.565Z,17.8
2018-10-12T00:37:50.767Z,17.8
2018-10-12T00:38:40.250Z,17.8
2018-10-12T00:39:29.482Z,17.8
2018-10-12T00:40:20.334Z,17.8
2018-10-12T00:41:10.145Z,17.8
2018-10-12T00:42:00.862Z,17.8
2018-10-12T00:42:50.537Z,17.8
2018-10-12T00:43:40.029Z,17.8
2018-10-12T00:44:30.426Z,17.8
2018-10-12T00:45:20.741Z,17.8
2018-10-12T00:46:11.632Z,17.8
2018-10-12T00:47:00.869Z,17.8
2018-10-12T00:47:50.787Z,17.8
2018-10-12T00:48:41.681Z,17.8
2018-10-12T00:49:30.457Z,17.8
2018-10-12T00:50:21.424Z,17.8
2018-10-12T00:51:11.157Z,17.8
2018-10-12T00:52:01.261Z,17.8
2018-10-12T00:52:51.580Z,17.8
2018-10-12T00:53:41.408Z,17.8
2018-10-12T00:54:31.701Z,17.8
2018-10-12T00:55:21.256Z,17.8
2018-10-12T00:56:11.518Z,17.8
2018-10-12T00:57:01.078Z,17.8
2018-10-12T00:57:51.702Z,17.8
2018-10-12T00:58:41.146Z,17.8
2018-10-12T00:59:32.054Z,17.8
2018-10-12T01:00:21.584Z,17.8
2018-10-12T01:01:11.869Z,17.8
2018-10-12T01:02:01.443Z,17.8
2018-10-12T01:02:52.354Z,17.8
2018-10-12T01:03:41.841Z,17.8
2018-10-12T01:04:32.731Z,17.8
2018-10-12T01:05:22.241Z,17.8
2018-10-12T01:06:12.769Z,17.8
2018-10-12T01:07:02.081Z,17.8
2018-10-12T01:07:52.376Z,17.8
2018-10-12T01:08:42.478Z,17.8
2018-10-12T01:09:32.541Z,17.8
2018-10-12T01:10:23.138Z,17.8
2018-10-12T01:11:12.399Z,17.8
2018-10-12T01:12:03.280Z,17.8
2018-10-12T01:12:52.505Z,17.8
2018-10-12T01:13:42.543Z,17.8
2018-10-12T01:14:32.707Z,17.8
2018-10-12T01:15:22.733Z,17.8
2018-10-12T01:16:13.092Z,17.8
2018-10-12T01:17:03.310Z,17.8
2018-10-12T01:17:53.427Z,17.7
2018-10-12T01:18:43.495Z,17.8
2018-10-12T01:19:33.522Z,17.8
2018-10-12T01:20:23.578Z,17.8
2018-10-12T01:21:13.082Z,17.7
2018-10-12T01:22:04.282Z,17.7
2018-10-12T01:22:54.089Z,17.8
2018-10-12T01:23:43.320Z,17.7
2018-10-12T01:24:33.704Z,17.7
2018-10-12T01:25:23.971Z,17.8
2018-10-12T01:26:14.104Z,17.7
2018-10-12T01:27:04.132Z,17.7
2018-10-12T01:27:53.676Z,17.7
2018-10-12T01:28:43.114Z,17.7
2018-10-12T01:29:34.056Z,17.7
2018-10-12T01:30:24.426Z,17.7
2018-10-12T01:31:14.146Z,17.7
2018-10-12T01:32:03.406Z,17.7
2018-10-12T01:32:54.024Z,17.7
2018-10-12T01:33:43.491Z,17.7
2018-10-12T01:34:34.162Z,17.7
2018-10-12T01:35:24.429Z,17.7
2018-10-12T01:36:13.706Z,17.7
2018-10-12T01:37:05.159Z,17.7
2018-10-12T01:37:54.878Z,17.7
2018-10-12T01:38:44.511Z,17.7
2018-10-12T01:39:35.396Z,17.7
2018-10-12T01:40:24.013Z,17.7
2018-10-12T01:41:14.000Z,17.7
2018-10-12T01:42:04.454Z,17.7
2018-10-12T01:42:55.233Z,17.7
2018-10-12T01:43:44.823Z,17.7
2018-10-12T01:44:34.664Z,17.7
2018-10-12T01:45:25.759Z,17.7
2018-10-12T01:46:14.926Z,17.7
2018-10-12T01:47:05.521Z,17.7
2018-10-12T01:47:55.623Z,17.7
2018-10-12T01:48:45.207Z,17.7
2018-10-12T01:49:35.813Z,17.7
2018-10-12T01:50:25.851Z,17.7
2018-10-12T01:51:15.110Z,17.7
2018-10-12T01:52:05.428Z,17.7
2018-10-12T01:52:55.808Z,17.7
2018-10-12T01:53:45.548Z,17.7
2018-10-12T01:54:35.033Z,17.7
2018-10-12T01:55:26.196Z,17.7
2018-10-12T01:56:16.564Z,17.7
2018-10-12T01:57:05.480Z,17.7
2018-10-12T01:57:56.700Z,17.7
2018-10-12T01:58:46.488Z,17.7
2018-10-12T01:59:36.277Z,17.7
2018-10-12T02:00:26.636Z,17.7
2018-10-12T02:01:16.655Z,17.7
2018-10-12T02:02:06.148Z,17.6
2018-10-12T02:02:55.992Z,17.7
2018-10-12T02:03:46.621Z,17.7
2018-10-12T02:04:36.350Z,17.7
2018-10-12T02:05:25.540Z,17.6
2018-10-12T02:06:17.028Z,17.6
2018-10-12T02:07:07.387Z,17.7
2018-10-12T02:07:56.517Z,17.7
2018-10-12T02:08:47.182Z,17.7
2018-10-12T02:09:37.027Z,17.6
2018-10-12T02:10:26.823Z,17.7
2018-10-12T02:11:17.153Z,17.7
2018-10-12T02:12:06.594Z,17.6
2018-10-12T02:12:57.487Z,17.7
2018-10-12T02:13:46.499Z,17.7
2018-10-12T02:14:37.932Z,17.7
2018-10-12T02:15:27.127Z,17.6
2018-10-12T02:16:17.821Z,17.6
2018-10-12T02:17:06.770Z,17.6
2018-10-12T02:17:58.375Z,17.6
2018-10-12T02:18:47.134Z,17.6
2018-10-12T02:19:38.081Z,17.6
2018-10-12T02:20:27.161Z,17.6
2018-10-12T02:21:17.340Z,17.6
2018-10-12T02:22:07.627Z,17.6
2018-10-12T02:22:58.978Z,17.6
2018-10-12T02:23:48.014Z,17.6
2018-10-12T02:24:38.410Z,17.6
2018-10-12T02:25:27.911Z,17.6
2018-10-12T02:26:17.946Z,17.6
2018-10-12T02:27:08.853Z,17.6
2018-10-12T02:27:57.766Z,17.6
2018-10-12T02:28:48.631Z,17.6
2018-10-12T02:29:38.978Z,17.6
2018-10-12T02:30:29.178Z,17.6
2018-10-12T02:31:18.651Z,17.6
2018-10-12T02:32:08.976Z,17.6
2018-10-12T02:32:58.733Z,17.6
2018-10-12T02:33:48.518Z,17.6
2018-10-12T02:34:39.131Z,17.6
2018-10-12T02:35:28.323Z,17.6
2018-10-12T02:36:18.711Z,17.6
2018-10-12T02:37:09.087Z,17.6
2018-10-12T02:37:59.105Z,17.6
2018-10-12T02:38:48.355Z,17.6
2018-10-12T02:39:39.639Z,17.6
2018-10-12T02:40:28.760Z,17.6
2018-10-12T02:41:19.367Z,17.6
2018-10-12T02:42:09.928Z,17.6
2018-10-12T02:42:59.768Z,17.6
2018-10-12T02:43:49.467Z,17.6
2018-10-12T02:44:39.308Z,17.6
2018-10-12T02:45:29.365Z,17.6
2018-10-12T02:46:19.992Z,17.6
2018-10-12T02:47:10.423Z,17.6
2018-10-12T02:47:59.838Z,17.6
2018-10-12T02:48:49.323Z,17.6
2018-10-12T02:49:39.735Z,17.6
2018-10-12T02:50:29.765Z,17.6
2018-10-12T02:51:19.819Z,17.6
2018-10-12T02:52:09.592Z,17.6
2018-10-12T02:52:59.654Z,17.6
2018-10-12T02:53:50.587Z,17.6
2018-10-12T02:54:40.874Z,17.6
2018-10-12T02:55:30.991Z,17.6
2018-10-12T02:56:20.470Z,17.6
2018-10-12T02:57:10.567Z,17.6
2018-10-12T02:58:00.860Z,17.6
2018-10-12T02:58:50.998Z,17.6
2018-10-12T02:59:40.749Z,17.6
2018-10-12T03:00:30.847Z,17.6
2018-10-12T03:01:20.296Z,17.6
2018-10-12T03:02:11.284Z,17.6
2018-10-12T03:03:00.221Z,17.6
2018-10-12T03:03:51.349Z,17.6
2018-10-12T03:04:41.847Z,17.6
2018-10-12T03:05:31.558Z,17.6
2018-10-12T03:06:22.107Z,17.6
2018-10-12T03:07:10.989Z,17.6
2018-10-12T03:08:01.156Z,17.6
2018-10-12T03:08:51.926Z,17.6
2018-10-12T03:09:41.773Z,17.6
2018-10-12T03:10:31.794Z,17.6
2018-10-12T03:11:21.862Z,17.6
2018-10-12T03:12:11.990Z,17.6
2018-10-12T03:13:01.440Z,17.6
2018-10-12T03:13:52.040Z,17.6
2018-10-12T03:14:42.349Z,17.6
2018-10-12T03:15:31.598Z,17.6
2018-10-12T03:16:21.139Z,17.6
2018-10-12T03:17:12.583Z,17.6
2018-10-12T03:18:01.820Z,17.6
2018-10-12T03:18:52.502Z,17.6
2018-10-12T03:19:42.150Z,17.6
2018-10-12T03:20:31.765Z,17.6
2018-10-12T03:21:22.067Z,17.6
2018-10-12T03:22:12.158Z,17.6
2018-10-12T03:23:02.678Z,17.6
2018-10-12T03:23:52.827Z,17.6
2018-10-12T03:24:42.025Z,17.6
2018-10-12T03:25:32.683Z,17.6
2018-10-12T03:26:21.876Z,17.6
2018-10-12T03:27:11.499Z,17.6
2018-10-12T03:28:02.592Z,17.6
2018-10-12T03:28:52.102Z,17.6
2018-10-12T03:29:43.510Z,17.6
2018-10-12T03:30:33.660Z,17.6
2018-10-12T03:31:23.722Z,17.6
2018-10-12T03:32:12.725Z,17.6
2018-10-12T03:33:02.580Z,17.6
2018-10-12T03:33:53.538Z,17.6
2018-10-12T03:34:42.447Z,17.6
2018-10-12T03:35:32.828Z,17.6
2018-10-12T03:36:23.206Z,17.6
2018-10-12T03:37:13.802Z,17.6
2018-10-12T03:38:04.081Z,17.6
2018-10-12T03:38:53.566Z,17.6
2018-10-12T03:39:43.749Z,17.6
2018-10-12T03:40:33.512Z,17.6
2018-10-12T03:41:23.841Z,17.6
2018-10-12T03:42:14.139Z,17.5
2018-10-12T03:43:03.684Z,17.4
2018-10-12T03:43:53.418Z,17.4
2018-10-12T03:44:44.365Z,17.4
2018-10-12T03:45:33.521Z,17.4
2018-10-12T03:46:23.053Z,17.4
2018-10-12T03:47:14.259Z,17.4
2018-10-12T03:48:03.428Z,17.4
2018-10-12T03:48:54.926Z,17.4
2018-10-12T03:49:43.861Z,17.4
2018-10-12T03:50:33.491Z,17.4
2018-10-12T03:51:24.063Z,17.4
2018-10-12T03:52:14.651Z,17.4
2018-10-12T03:53:04.129Z,17.4
2018-10-12T03:53:53.928Z,17.4
2018-10-12T03:54:45.346Z,17.4
2018-10-12T03:55:34.558Z,17.4
2018-10-12T03:56:24.113Z,17.4
2018-10-12T03:57:15.233Z,17.4
2018-10-12T03:58:04.983Z,17.4
2018-10-12T03:58:54.263Z,17.4
2018-10-12T03:59:44.031Z,17.4
2018-10-12T04:00:34.368Z,17.4
2018-10-12T04:01:24.732Z,17.4
2018-10-12T04:02:15.371Z,17.4
2018-10-12T04:03:05.932Z,17.4
2018-10-12T04:03:55.742Z,17.4
2018-10-12T04:04:45.226Z,17.4
2018-10-12T04:05:35.944Z,17.4
2018-10-12T04:06:25.184Z,17.4
2018-10-12T04:07:15.223Z,17.4
2018-10-12T04:08:05.857Z,17.4
2018-10-12T04:08:55.228Z,17.4
2018-10-12T04:09:45.686Z,17.4
2018-10-12T04:10:35.158Z,17.4
2018-10-12T04:11:25.850Z,17.4
2018-10-12T04:12:16.020Z,17.4
2018-10-12T04:13:06.462Z,17.4
2018-10-12T04:13:56.560Z,17.3
2018-10-12T04:14:45.455Z,17.4
2018-10-12T04:15:36.622Z,17.4
2018-10-12T04:16:26.158Z,17.3
2018-10-12T04:17:17.020Z,17.4
2018-10-12T04:18:06.791Z,17.4
2018-10-12T04:18:56.606Z,17.4
2018-10-12T04:19:46.945Z,17.4
2018-10-12T04:20:36.957Z,17.3
2018-10-12T04:21:27.049Z,17.4
2018-10-12T04:22:17.113Z,17.4
2018-10-12T04:23:07.465Z,17.3
2018-10-12T04:23:56.129Z,17.3
2018-10-12T04:24:47.077Z,17.3
2018-10-12T04:25:37.409Z,17.3
2018-10-12T04:26:27.400Z,17.3
2018-10-12T04:27:15.170Z,17.3
2018-10-12T04:28:07.267Z,17.3
2018-10-12T04:28:57.594Z,17.3
2018-10-12T04:29:48.164Z,17.3
2018-10-12T04:30:37.804Z,17.3
2018-10-12T04:31:27.237Z,17.3
2018-10-12T04:32:17.841Z,17.3
2018-10-12T04:33:07.422Z,17.3
2018-10-12T04:33:57.719Z,17.3
2018-10-12T04:34:47.147Z,17.3
2018-10-12T04:35:37.516Z,17.3
2018-10-12T04:36:28.205Z,17.3
2018-10-12T04:54:37.101Z,17.3
2018-10-12T04:55:27.457Z,17.3
2018-10-12T04:56:16.930Z,17.3
2018-10-12T04:57:07.003Z,17.3
2018-10-12T04:57:57.913Z,17.3
2018-10-12T04:58:47.650Z,17.3
2018-10-12T04:59:38.010Z,17.3
2018-10-12T05:00:27.194Z,17.3
2018-10-12T05:01:19.618Z,17.3
2018-10-12T05:02:07.615Z,17.3
2018-10-12T05:02:58.190Z,17.3
2018-10-12T05:03:47.780Z,17.3
2018-10-12T05:04:38.337Z,17.3
2018-10-12T05:05:27.248Z,17.3
2018-10-12T05:06:17.007Z,17.3
2018-10-12T05:07:08.547Z,17.3
2018-10-12T05:07:58.958Z,17.3
2018-10-12T05:08:46.993Z,17.3
2018-10-12T05:09:38.700Z,17.3
2018-10-12T05:10:28.533Z,17.2
2018-10-12T05:11:18.318Z,17.3
2018-10-12T05:12:08.992Z,17.3
2018-10-12T05:12:58.745Z,17.2
2018-10-12T05:13:48.462Z,17.3
2018-10-12T05:14:38.421Z,17.2
2018-10-12T05:15:28.830Z,17.2
2018-10-12T05:16:18.916Z,17.3
2018-10-12T05:17:08.174Z,17.2
2018-10-12T05:17:58.764Z,17.2
2018-10-12T05:18:48.326Z,17.2
2018-10-12T05:19:39.440Z,17.2
2018-10-12T05:20:28.408Z,17.3
2018-10-12T05:21:19.849Z,17.2
2018-10-12T05:22:12.507Z,17.2
2018-10-12T05:22:58.901Z,17.2
2018-10-12T05:23:48.952Z,17.2
2018-10-12T05:24:38.729Z,17.2
2018-10-12T05:25:29.298Z,17.2
2018-10-12T05:26:19.072Z,17.2
2018-10-12T05:27:09.487Z,17.3
2018-10-12T05:27:59.566Z,17.2
2018-10-12T05:28:49.874Z,17.2
2018-10-12T05:29:39.910Z,17.2
2018-10-12T05:30:30.813Z,17.2
2018-10-12T05:31:19.156Z,17.2
2018-10-12T05:32:09.019Z,17.2
2018-10-12T05:33:00.226Z,17.2
2018-10-12T05:33:49.678Z,17.2
2018-10-12T05:34:40.008Z,17.2
2018-10-12T05:35:30.073Z,17.2
2018-10-12T05:36:20.471Z,17.2
2018-10-12T05:37:09.936Z,17.2
2018-10-12T05:38:00.508Z,17.2
2018-10-12T05:38:50.635Z,17.2
2018-10-12T05:39:40.060Z,17.2
2018-10-12T05:40:30.456Z,17.2
2018-10-12T05:41:21.391Z,17.2
2018-10-12T05:42:10.252Z,17.2
2018-10-12T05:43:03.033Z,17.2
2018-10-12T05:43:52.470Z,17.2
2018-10-12T05:44:40.500Z,17.2
2018-10-12T05:45:30.546Z,17.2
2018-10-12T05:46:20.257Z,17.1
2018-10-12T05:47:11.526Z,17.2
2018-10-12T05:48:00.997Z,17.2
2018-10-12T05:48:52.097Z,17.2
2018-10-12T05:49:39.688Z,17.2
2018-10-12T05:50:30.903Z,17.2
2018-10-12T05:51:21.476Z,17.2
2018-10-12T05:52:12.151Z,17.2
2018-10-12T05:53:00.523Z,17.2
2018-10-12T05:53:51.498Z,17.2
2018-10-12T05:54:41.793Z,17.2
2018-10-12T05:55:31.526Z,17.2
2018-10-12T05:56:22.091Z,17.2
2018-10-12T05:57:11.573Z,17.2
2018-10-12T05:58:01.990Z,17.2
2018-10-12T05:58:51.510Z,17.2
2018-10-12T05:59:42.217Z,17.2
2018-10-12T06:00:31.923Z,17.2
2018-10-12T06:01:23.808Z,17.2
2018-10-12T06:02:12.939Z,17.1
2018-10-12T06:03:02.169Z,17.2
2018-10-12T06:03:51.890Z,17.2
2018-10-12T06:04:42.340Z,17.2
2018-10-12T06:05:32.388Z,17.2
2018-10-12T06:06:20.969Z,17.1
2018-10-12T06:07:13.258Z,17.2
2018-10-12T06:08:02.649Z,17.2
2018-10-12T06:08:52.662Z,17.2
2018-10-12T06:09:43.759Z,17.2
2018-10-12T06:10:31.904Z,17.2
2018-10-12T06:11:22.998Z,17.2
2018-10-12T06:12:13.091Z,17.2
2018-10-12T06:13:02.599Z,17.1
2018-10-12T06:13:52.697Z,17.2
2018-10-12T06:14:43.327Z,17.2
2018-10-12T06:15:33.477Z,17.2
2018-10-12T06:16:23.134Z,17.2
2018-10-12T06:17:13.409Z,17.2
2018-10-12T06:18:04.044Z,17.2
2018-10-12T06:18:53.326Z,17.2
2018-10-12T06:19:43.329Z,17.2
2018-10-12T06:20:33.469Z,17.2
2018-10-12T06:21:23.880Z,17.2
2018-10-12T06:22:13.257Z,17.2
2018-10-12T06:23:04.169Z,17.2
2018-10-12T06:23:53.661Z,17.2
2018-10-12T06:24:44.025Z,17.2
2018-10-12T06:25:34.154Z,17.2
2018-10-12T06:26:24.371Z,17.1
2018-10-12T06:27:14.502Z,17.2
2018-10-12T06:28:03.961Z,17.2
2018-10-12T06:28:54.000Z,17.2
2018-10-12T06:29:44.721Z,17.2
2018-10-12T06:30:33.324Z,17.2
2018-10-12T06:31:23.627Z,17.2
2018-10-12T06:32:14.761Z,17.2
2018-10-12T06:33:06.722Z,17.2
2018-10-12T06:33:53.831Z,17.2
2018-10-12T06:34:43.883Z,17.2
2018-10-12T06:35:34.530Z,17.2
2018-10-12T06:36:24.856Z,17.2
2018-10-12T06:37:15.429Z,17.2
2018-10-12T06:38:04.923Z,17.2
2018-10-12T06:38:54.788Z,17.2
2018-10-12T06:39:44.800Z,17.2
2018-10-12T06:40:33.869Z,17.2
2018-10-12T06:41:28.468Z,17.2
2018-10-12T06:42:15.018Z,17.2
2018-10-12T06:43:04.455Z,17.2
2018-10-12T06:43:55.180Z,17.2
2018-10-12T06:44:45.225Z,17.2
2018-10-12T06:45:35.093Z,17.2
2018-10-12T06:46:26.046Z,17.2
2018-10-12T06:47:15.997Z,17.2
2018-10-12T06:48:05.680Z,17.2
2018-10-12T06:48:55.285Z,17.2
2018-10-12T06:49:45.345Z,17.2
2018-10-12T06:50:32.800Z,17.2
2018-10-12T06:51:25.049Z,17.2
2018-10-12T06:52:15.765Z,17.2
2018-10-12T06:53:05.863Z,17.2
2018-10-12T06:53:57.269Z,17.2
2018-10-12T06:54:46.552Z,17.2
2018-10-12T06:55:35.727Z,17.2
2018-10-12T06:56:26.437Z,17.2
2018-10-12T06:57:15.883Z,17.2
2018-10-12T06:58:07.032Z,17.2
2018-10-12T06:58:56.547Z,17.2
2018-10-12T06:59:46.559Z,17.2
2018-10-12T07:00:35.268Z,17.2
2018-10-12T07:01:26.547Z,17.2
2018-10-12T07:02:16.755Z,17.2
2018-10-12T07:03:06.497Z,17.2
2018-10-12T07:03:56.376Z,17.2
2018-10-12T07:04:46.908Z,17.2
2018-10-12T07:05:38.217Z,17.2
2018-10-12T07:06:27.139Z,17.2
2018-10-12T07:07:16.877Z,17.2
2018-10-12T07:08:07.739Z,17.2
2018-10-12T07:08:57.539Z,17.2
2018-10-12T07:09:45.598Z,17.2
2018-10-12T07:10:37.106Z,17.2
2018-10-12T07:11:27.704Z,17.2
2018-10-12T07:12:16.677Z,17.2
2018-10-12T07:13:06.988Z,17.2
2018-10-12T07:13:58.820Z,17.2
2018-10-12T07:14:47.269Z,17.2
2018-10-12T07:15:37.680Z,17.2
2018-10-12T07:16:27.030Z,17.2
2018-10-12T07:17:17.843Z,17.2
2018-10-12T07:18:08.705Z,17.2
2018-10-12T07:18:56.844Z,17.2
2018-10-12T07:19:49.755Z,17.2
2018-10-12T07:20:37.349Z,17.2
2018-10-12T07:21:27.667Z,17.2
2018-10-12T07:22:17.073Z,17.2
2018-10-12T07:23:08.814Z,17.2
2018-10-12T07:23:57.546Z,17.2
2018-10-12T07:24:47.909Z,17.2
2018-10-12T07:25:38.056Z,17.2
2018-10-12T07:26:27.448Z,17.2
2018-10-12T07:27:17.867Z,17.2
2018-10-12T07:28:07.282Z,17.2
2018-10-12T07:28:58.503Z,17.2
2018-10-12T07:29:49.029Z,17.2
2018-10-12T07:30:38.323Z,17.2
2018-10-12T07:31:28.619Z,17.2
2018-10-12T07:32:18.425Z,17.2
2018-10-12T07:33:09.088Z,17.2
2018-10-12T07:33:58.565Z,17.2
2018-10-12T07:34:48.366Z,17.2
2018-10-12T07:35:39.517Z,17.3
2018-10-12T07:36:28.796Z,17.2
2018-10-12T07:37:20.982Z,17.2
2018-10-12T07:38:09.278Z,17.2
2018-10-12T07:38:58.949Z,17.2
2018-10-12T07:39:48.792Z,17.2
2018-10-12T07:40:40.103Z,17.2
2018-10-12T07:41:29.102Z,17.2
2018-10-12T07:42:19.724Z,17.2
2018-10-12T07:43:09.137Z,17.2
2018-10-12T07:43:58.137Z,17.3
2018-10-12T07:44:49.647Z,17.3
2018-10-12T07:45:40.202Z,17.2
2018-10-12T07:46:30.854Z,17.2
2018-10-12T07:47:21.590Z,17.2
2018-10-12T07:48:10.093Z,17.2
2018-10-12T07:48:59.093Z,17.2
2018-10-12T07:49:49.201Z,17.3
2018-10-12T07:50:39.964Z,17.2
2018-10-12T07:51:29.580Z,17.3
2018-10-12T07:52:19.349Z,17.3
2018-10-12T07:53:09.989Z,17.2
2018-10-12T07:54:00.594Z,17.2
2018-10-12T07:54:50.081Z,17.3
2018-10-12T07:55:40.509Z,17.2
2018-10-12T07:56:30.792Z,17.3
2018-10-12T07:57:20.589Z,17.3
2018-10-12T07:58:10.354Z,17.3
2018-10-12T07:59:01.814Z,17.3
2018-10-12T07:59:51.320Z,17.2
2018-10-12T08:00:42.852Z,17.3
2018-10-12T08:01:31.261Z,17.3
2018-10-12T08:02:21.319Z,17.2
2018-10-12T08:03:10.698Z,17.3
2018-10-12T08:04:00.751Z,17.3
2018-10-12T08:04:51.118Z,17.3
2018-10-12T08:05:41.040Z,17.2
2018-10-12T08:06:32.601Z,17.3
2018-10-12T08:07:21.270Z,17.3
2018-10-12T08:08:11.075Z,17.3
2018-10-12T08:09:01.410Z,17.3
2018-10-12T08:09:53.035Z,17.2
2018-10-12T08:10:42.514Z,17.3
2018-10-12T08:11:31.370Z,17.3
2018-10-12T08:12:20.580Z,17.3
2018-10-12T08:13:11.731Z,17.3
2018-10-12T08:14:02.949Z,17.3
2018-10-12T08:14:51.606Z,17.3
2018-10-12T08:15:42.453Z,17.3
2018-10-12T08:16:31.333Z,17.2
2018-10-12T08:17:21.990Z,17.3
2018-10-12T08:18:12.340Z,17.3
2018-10-12T08:19:02.713Z,17.3
2018-10-12T08:19:51.977Z,17.3
2018-10-12T08:20:43.117Z,17.3
2018-10-12T08:21:32.563Z,17.3
2018-10-12T08:22:22.705Z,17.3
2018-10-12T08:23:12.439Z,17.3
2018-10-12T08:24:02.039Z,17.2
2018-10-12T08:24:53.404Z,17.3
2018-10-12T08:25:42.837Z,17.3
2018-10-12T08:26:33.557Z,17.3
2018-10-12T08:27:22.487Z,17.3
2018-10-12T08:28:12.562Z,17.3
2018-10-12T08:29:02.060Z,17.3
2018-10-12T08:29:53.093Z,17.3
2018-10-12T08:30:41.937Z,17.3
2018-10-12T08:31:34.197Z,17.3
2018-10-12T08:32:22.926Z,17.3
2018-10-12T08:33:12.637Z,17.3
2018-10-12T08:34:02.484Z,17.3
2018-10-12T08:34:52.570Z,17.3
2018-10-12T08:35:43.991Z,17.3
2018-10-12T08:36:34.214Z,17.3
2018-10-12T08:37:23.809Z,17.3
2018-10-12T08:38:13.596Z,17.3
2018-10-12T08:39:03.186Z,17.3
2018-10-12T08:39:53.276Z,17.3
2018-10-12T08:40:42.524Z,17.3
2018-10-12T08:41:33.831Z,17.3
2018-10-12T08:42:24.181Z,17.3
2018-10-12T08:43:13.467Z,17.3
2018-10-12T08:44:04.370Z,17.3
2018-10-12T08:44:55.146Z,17.3
2018-10-12T08:45:43.416Z,17.3
2018-10-12T08:46:33.678Z,17.3
2018-10-12T08:47:25.053Z,17.3
2018-10-12T08:48:14.632Z,17.3
2018-10-12T08:49:03.903Z,17.3
2018-10-12T08:49:53.745Z,17.3
2018-10-12T08:50:44.583Z,17.3
2018-10-12T08:51:35.418Z,17.3
2018-10-12T08:52:24.618Z,17.3
2018-10-12T09:08:58.060Z,17.3
2018-10-12T09:09:48.877Z,17.3
2018-10-12T09:10:38.137Z,17.3
2018-10-12T09:11:27.942Z,17.3
2018-10-12T09:12:18.300Z,17.3
2018-10-12T09:13:08.119Z,17.3
2018-10-12T09:13:58.028Z,17.3
2018-10-12T09:14:48.271Z,17.3
2018-10-12T09:15:37.674Z,17.3
2018-10-12T09:16:29.401Z,17.3
2018-10-12T09:17:18.087Z,17.3
2018-10-12T09:18:07.949Z,17.3
2018-10-12T09:18:59.314Z,17.3
2018-10-12T09:19:47.129Z,17.3
2018-10-12T09:20:42.336Z,17.3
2018-10-12T09:21:27.227Z,17.3
2018-10-12T09:22:18.151Z,17.3
2018-10-12T09:23:07.419Z,17.3
2018-10-12T09:23:57.695Z,17.3
2018-10-12T09:24:49.236Z,17.3
2018-10-12T09:25:37.712Z,17.3
2018-10-12T09:26:27.483Z,17.3
2018-10-12T09:27:19.941Z,17.3
2018-10-12T09:28:08.658Z,17.3
2018-10-12T09:28:58.429Z,17.3
2018-10-12T09:29:47.931Z,17.3
2018-10-12T09:30:39.713Z,17.3
2018-10-12T09:31:28.323Z,17.3
2018-10-12T09:32:19.225Z,17.3
2018-10-12T09:33:09.613Z,17.3
2018-10-12T09:33:59.119Z,17.3
2018-10-12T09:34:48.383Z,17.3
2018-10-12T09:35:37.795Z,17.3
2018-10-12T09:36:29.904Z,17.3
2018-10-12T09:37:20.472Z,17.3
2018-10-12T09:38:10.182Z,17.3
2018-10-12T09:38:59.157Z,17.3
2018-10-12T09:39:49.821Z,17.3
2018-10-12T09:40:39.600Z,17.3
2018-10-12T09:41:30.715Z,17.3
2018-10-12T09:42:19.729Z,17.3
2018-10-12T09:43:10.280Z,17.3
2018-10-12T09:43:58.365Z,17.3
2018-10-12T09:44:48.490Z,17.3
2018-10-12T09:45:40.537Z,17.3
2018-10-12T09:46:29.715Z,17.3
2018-10-12T09:47:20.427Z,17.3
2018-10-12T09:48:09.048Z,17.3
2018-10-12T09:48:59.877Z,17.3
2018-10-12T09:49:49.684Z,17.3
2018-10-12T09:50:40.539Z,17.4
2018-10-12T09:51:29.704Z,17.4
2018-10-12T09:52:19.587Z,17.3
2018-10-12T09:53:09.962Z,17.3
2018-10-12T09:54:00.279Z,17.3
2018-10-12T09:54:49.852Z,17.3
2018-10-12T09:55:40.384Z,17.3
2018-10-12T09:56:31.581Z,17.3
2018-10-12T09:57:19.669Z,17.3
2018-10-12T09:58:10.597Z,17.3
2018-10-12T09:59:00.414Z,17.3
2018-10-12T09:59:51.131Z,17.4
2018-10-12T10:00:40.476Z,17.3
2018-10-12T10:01:31.406Z,17.4
2018-10-12T10:02:23.639Z,17.4
2018-10-12T10:03:10.809Z,17.3
2018-10-12T10:04:01.088Z,17.4
2018-10-12T10:04:50.936Z,17.4
2018-10-12T10:05:41.095Z,17.4
2018-10-12T10:06:31.545Z,17.3
2018-10-12T10:07:21.057Z,17.4
2018-10-12T10:08:14.112Z,17.4
2018-10-12T10:09:04.009Z,17.4
2018-10-12T10:09:51.707Z,17.4
2018-10-12T10:10:40.528Z,17.4
2018-10-12T10:11:31.313Z,17.4
2018-10-12T10:12:21.671Z,17.4
2018-10-12T10:13:11.173Z,17.4
2018-10-12T10:14:03.304Z,17.4
2018-10-12T10:14:51.865Z,17.4
2018-10-12T10:15:42.341Z,17.4
2018-10-12T10:16:32.205Z,17.4
2018-10-12T10:17:22.384Z,17.4
2018-10-12T10:18:12.497Z,17.4
2018-10-12T10:19:02.975Z,17.4
2018-10-12T10:19:51.993Z,17.4
2018-10-12T10:20:42.025Z,17.4
2018-10-12T10:21:32.135Z,17.4
2018-10-12T10:22:22.487Z,17.4
2018-10-12T10:23:12.507Z,17.4
2018-10-12T10:24:02.245Z,17.4
2018-10-12T10:24:52.548Z,17.4
2018-10-12T10:25:42.890Z,17.4
2018-10-12T10:26:33.560Z,17.4
2018-10-12T10:27:22.932Z,17.4
2018-10-12T10:28:13.352Z,17.4
2018-10-12T10:29:03.478Z,17.4
2018-10-12T10:29:53.287Z,17.4
2018-10-12T10:30:43.322Z,17.4
2018-10-12T10:31:31.930Z,17.4
2018-10-12T10:32:24.930Z,17.4
2018-10-12T10:33:14.263Z,17.4
2018-10-12T10:34:04.282Z,17.4
2018-10-12T10:34:53.050Z,17.4
2018-10-12T10:35:43.944Z,17.4
2018-10-12T10:36:33.584Z,17.4
2018-10-12T10:37:24.575Z,17.4
2018-10-12T10:38:13.239Z,17.4
2018-10-12T10:39:05.693Z,17.4
2018-10-12T10:39:52.567Z,17.4
2018-10-12T10:40:43.357Z,17.4
2018-10-12T10:41:34.588Z,17.4
2018-10-12T10:42:24.389Z,17.4
2018-10-12T10:43:13.949Z,17.4
2018-10-12T10:44:03.707Z,17.4
2018-10-12T10:44:54.019Z,17.4
2018-10-12T10:45:43.534Z,17.4
2018-10-12T10:46:35.734Z,17.4
2018-10-12T10:47:24.196Z,17.4
2018-10-12T10:48:14.867Z,17.4
2018-10-12T10:49:03.279Z,17.4
2018-10-12T10:49:53.854Z,17.4
2018-10-12T10:50:43.996Z,17.4
2018-10-12T10:51:34.701Z,17.4
2018-10-12T10:52:24.646Z,17.4
2018-10-12T10:53:14.146Z,17.4
2018-10-12T10:54:04.548Z,17.4
2018-10-12T10:54:54.523Z,17.4
2018-10-12T10:55:44.879Z,17.4
2018-10-12T10:56:34.953Z,17.4
2018-10-12T10:57:25.736Z,17.4
2018-10-12T10:58:15.821Z,17.4
2018-10-12T10:59:04.320Z,17.4
2018-10-12T10:59:55.738Z,17.4
2018-10-12T11:00:45.634Z,17.4
2018-10-12T11:01:35.615Z,17.4
2018-10-12T11:02:24.767Z,17.4
2018-10-12T11:03:15.978Z,17.4
2018-10-12T11:04:04.933Z,17.4
2018-10-12T11:04:55.315Z,17.4
2018-10-12T11:05:45.873Z,17.4
2018-10-12T11:06:36.344Z,17.4
2018-10-12T11:07:25.758Z,17.4
2018-10-12T11:08:16.365Z,17.4
2018-10-12T11:09:05.393Z,17.4
2018-10-12T11:09:56.192Z,17.4
2018-10-12T11:10:46.297Z,17.4
2018-10-12T11:11:35.494Z,17.4
2018-10-12T11:12:28.846Z,17.4
2018-10-12T11:13:15.247Z,17.4
2018-10-12T11:14:05.679Z,17.4
2018-10-12T11:14:56.290Z,17.4
2018-10-12T11:15:45.485Z,17.4
2018-10-12T11:16:36.401Z,17.4
2018-10-12T11:17:25.918Z,17.4
2018-10-12T11:18:16.785Z,17.4
2018-10-12T11:19:06.077Z,17.4
2018-10-12T11:19:56.449Z,17.4
2018-10-12T11:20:45.579Z,17.4
2018-10-12T11:21:36.659Z,17.4
2018-10-12T11:22:27.594Z,17.4
2018-10-12T11:23:17.372Z,17.4
2018-10-12T11:24:07.799Z,17.4
2018-10-12T11:24:57.566Z,17.4
2018-10-12T11:25:47.596Z,17.4
2018-10-12T11:26:39.308Z,17.4
2018-10-12T11:27:27.555Z,17.4
2018-10-12T11:28:18.634Z,17.4
2018-10-12T11:29:07.801Z,17.4
2018-10-12T11:29:57.334Z,17.4
2018-10-12T11:30:47.616Z,17.4
2018-10-12T11:31:37.983Z,17.4
2018-10-12T11:32:27.309Z,17.4
2018-10-12T11:33:18.856Z,17.4
2018-10-12T11:34:07.471Z,17.4
2018-10-12T11:34:57.473Z,17.4
2018-10-12T11:35:47.827Z,17.4
2018-10-12T11:36:37.088Z,17.4
2018-10-12T11:37:27.456Z,17.4
2018-10-12T11:38:18.521Z,17.4
2018-10-12T11:39:08.065Z,17.4
2018-10-12T11:39:57.627Z,17.4
2018-10-12T11:40:49.228Z,17.4
2018-10-12T11:41:38.535Z,17.4
2018-10-12T11:42:27.955Z,17.4
2018-10-12T11:43:18.255Z,17.4
2018-10-12T11:44:08.173Z,17.4
2018-10-12T11:45:00.190Z,17.4
2018-10-12T11:45:48.303Z,17.4
2018-10-12T11:46:38.185Z,17.4
2018-10-12T11:47:29.590Z,17.4
2018-10-12T11:48:18.203Z,17.5
2018-10-12T11:49:08.615Z,17.5
2018-10-12T11:49:57.782Z,17.5
2018-10-12T11:50:48.360Z,17.4
2018-10-12T11:51:39.784Z,17.5
2018-10-12T11:52:29.623Z,17.5
2018-10-12T11:53:19.055Z,17.5
2018-10-12T11:54:09.937Z,17.5
2018-10-12T11:54:59.810Z,17.5
2018-10-12T11:55:49.531Z,17.5
2018-10-12T11:56:40.165Z,17.5
2018-10-12T11:57:29.444Z,17.5